createdAt,value
2022-12-03T00:00:36.339Z,99380.13
2022-12-03T00:03:03.471Z,99379.81
2022-12-03T00:05:30.205Z,99388.56
2022-12-03T00:07:56.975Z,99378.78
2022-12-03T00:10:23.671Z,99378.06
2022-12-03T00:12:50.223Z,99363.94
2022-12-03T00:15:16.793Z,99369.03
2022-12-03T00:17:43.406Z,99360.34
2022-12-03T00:20:18.577Z,99369.38
2022-12-03T00:22:45.249Z,99366.09
2022-12-03T00:25:11.869Z,99362.50
2022-12-03T00:27:38.396Z,99355.25
2022-12-03T00:30:06.319Z,99347.50
2022-12-03T00:32:32.861Z,99334.09
2022-12-03T00:34:59.436Z,99336.25
2022-12-03T00:37:25.974Z,99345.69
2022-12-03T00:39:52.501Z,99343.94
2022-12-03T00:42:19.005Z,99349.19
2022-12-03T00:44:45.646Z,99335.22
2022-12-03T00:47:12.846Z,99341.72
2022-12-03T00:49:39.411Z,99334.28
2022-12-03T00:52:06.085Z,99329.44
2022-12-03T00:54:32.667Z,99331.66
2022-12-03T00:56:59.226Z,99336.25
2022-12-03T00:59:25.825Z,99337.59
2022-12-03T01:01:52.414Z,99337.38
2022-12-03T01:04:19.058Z,99339.66
2022-12-03T01:06:45.674Z,99349.50
2022-12-03T01:09:12.291Z,99348.88
2022-12-03T01:11:38.846Z,99342.47
2022-12-03T01:14:11.279Z,99333.78
2022-12-03T01:16:38.502Z,99338.09
2022-12-03T01:19:06.708Z,99325.00
2022-12-03T01:21:33.728Z,99321.34
2022-12-03T01:24:00.685Z,99325.50
2022-12-03T01:26:27.234Z,99322.25
2022-12-03T01:28:54.079Z,99327.78
2022-12-03T01:31:39.652Z,99326.84
2022-12-03T01:34:06.564Z,99331.31
2022-12-03T01:36:34.384Z,99336.34
2022-12-03T01:39:01.729Z,99343.72
2022-12-03T01:41:29.078Z,99334.75
2022-12-03T01:43:56.601Z,99339.66
2022-12-03T01:46:27.414Z,99334.63
2022-12-03T01:48:56.276Z,99337.81
2022-12-03T01:51:22.853Z,99342.72
2022-12-03T01:53:49.736Z,99335.38
2022-12-03T01:56:18.039Z,99340.34
2022-12-03T01:58:46.104Z,99335.84
2022-12-03T02:03:53.900Z,99340.50
2022-12-03T02:06:22.912Z,99325.69
2022-12-03T02:08:49.557Z,99322.69
2022-12-03T02:11:28.665Z,99332.41
2022-12-03T02:13:59.569Z,99326.88
2022-12-03T02:16:26.237Z,99335.53
2022-12-03T02:18:53.044Z,99337.31
2022-12-03T02:21:36.837Z,99328.94
2022-12-03T02:24:11.807Z,99327.97
2022-12-03T02:26:38.415Z,99334.56
2022-12-03T02:29:04.971Z,99321.13
2022-12-03T02:31:32.556Z,99324.78
2022-12-03T02:33:59.130Z,99315.66
2022-12-03T02:36:25.771Z,99318.63
2022-12-03T02:38:52.540Z,99324.84
2022-12-03T02:41:38.711Z,99323.28
2022-12-03T02:44:07.421Z,99325.59
2022-12-03T02:46:34.385Z,99328.25
2022-12-03T02:49:01.950Z,99320.16
2022-12-03T02:51:28.796Z,99320.56
2022-12-03T02:53:56.777Z,99322.09
2022-12-03T02:56:27.356Z,99320.69
2022-12-03T02:58:58.437Z,99320.78
2022-12-03T03:01:25.265Z,99315.78
2022-12-03T03:03:52.627Z,99318.72
2022-12-03T03:06:20.095Z,99335.16
2022-12-03T03:08:46.694Z,99318.44
2022-12-03T03:11:13.297Z,99318.53
2022-12-03T03:13:40.278Z,99330.16
2022-12-03T03:16:08.451Z,99317.59
2022-12-03T03:18:36.082Z,99315.38
2022-12-03T03:21:04.009Z,99328.91
2022-12-03T03:23:30.571Z,99328.63
2022-12-03T03:26:00.919Z,99327.41
2022-12-03T03:28:29.186Z,99321.63
2022-12-03T03:30:56.200Z,99319.28
2022-12-03T03:33:22.995Z,99311.94
2022-12-03T03:35:49.939Z,99315.66
2022-12-03T03:38:19.356Z,99318.38
2022-12-03T03:40:48.123Z,99320.00
2022-12-03T03:43:15.474Z,99325.44
2022-12-03T03:45:43.050Z,99323.72
2022-12-03T03:48:10.358Z,99328.34
2022-12-03T03:50:37.249Z,99327.53
2022-12-03T03:53:04.940Z,99319.69
2022-12-03T03:55:32.453Z,99316.44
2022-12-03T03:57:59.253Z,99294.75
2022-12-03T04:00:26.131Z,99291.41
2022-12-03T04:02:53.811Z,99291.78
2022-12-03T04:05:23.149Z,99292.59
2022-12-03T04:07:50.208Z,99298.34
2022-12-03T04:10:35.615Z,99292.69
2022-12-03T04:13:02.558Z,99293.88
2022-12-03T04:15:29.243Z,99285.53
2022-12-03T04:18:15.013Z,99282.66
2022-12-03T04:20:41.737Z,99279.97
2022-12-03T04:23:08.835Z,99291.09
2022-12-03T04:25:53.855Z,99295.56
2022-12-03T04:28:38.998Z,99292.59
2022-12-03T04:31:25.954Z,99293.94
2022-12-03T04:34:11.215Z,99308.09
2022-12-03T04:36:37.939Z,99294.66
2022-12-03T04:39:05.019Z,99294.31
2022-12-03T04:41:31.572Z,99283.06
2022-12-03T04:44:16.993Z,99279.81
2022-12-03T04:46:43.547Z,99279.50
2022-12-03T04:49:10.133Z,99276.81
2022-12-03T04:51:36.815Z,99281.38
2022-12-03T04:54:03.452Z,99272.59
2022-12-03T04:56:29.947Z,99270.84
2022-12-03T04:58:56.969Z,99266.19
2022-12-03T05:01:23.573Z,99263.66
2022-12-03T05:03:50.263Z,99262.53
2022-12-03T05:06:16.969Z,99263.81
2022-12-03T05:08:43.527Z,99261.69
2022-12-03T05:11:10.032Z,99255.94
2022-12-03T05:13:36.822Z,99254.66
2022-12-03T05:16:03.733Z,99244.56
2022-12-03T05:18:30.264Z,99245.47
2022-12-03T05:20:56.891Z,99246.13
2022-12-03T05:23:23.554Z,99255.66
2022-12-03T05:25:50.074Z,99256.06
2022-12-03T05:28:17.419Z,99249.22
2022-12-03T05:30:44.083Z,99255.66
2022-12-03T05:33:10.803Z,99257.75
2022-12-03T05:35:37.395Z,99265.41
2022-12-03T05:38:03.896Z,99272.09
2022-12-03T05:40:30.536Z,99276.50
2022-12-03T05:42:57.369Z,99279.25
2022-12-03T05:45:27.311Z,99272.47
2022-12-03T05:47:55.252Z,99265.16
2022-12-03T05:50:23.898Z,99281.34
2022-12-03T05:52:50.712Z,99286.47
2022-12-03T05:55:17.949Z,99278.22
2022-12-03T05:57:44.843Z,99286.09
2022-12-03T06:00:20.715Z,99289.59
2022-12-03T06:02:47.913Z,99301.53
2022-12-03T06:05:18.758Z,99295.94
2022-12-03T06:07:46.176Z,99293.13
2022-12-03T06:10:14.516Z,99303.16
2022-12-03T06:12:41.475Z,99300.78
2022-12-03T06:15:08.901Z,99298.44
2022-12-03T06:17:35.638Z,99298.59
2022-12-03T06:20:02.856Z,99305.38
2022-12-03T06:22:29.545Z,99301.13
2022-12-03T06:24:58.492Z,99307.22
2022-12-03T06:27:27.206Z,99295.41
2022-12-03T06:29:53.803Z,99296.94
2022-12-03T06:32:20.383Z,99292.88
2022-12-03T06:34:46.867Z,99287.31
2022-12-03T06:37:13.481Z,99294.63
2022-12-03T06:39:40.037Z,99287.31
2022-12-03T06:42:06.556Z,99290.69
2022-12-03T06:44:33.189Z,99298.16
2022-12-03T06:46:59.809Z,99297.97
2022-12-03T06:49:26.435Z,99289.09
2022-12-03T06:51:52.991Z,99283.13
2022-12-03T06:54:19.641Z,99287.09
2022-12-03T06:56:47.180Z,99289.75
2022-12-03T06:59:14.067Z,99292.06
2022-12-03T07:01:40.702Z,99282.91
2022-12-03T07:04:07.289Z,99287.97
2022-12-03T07:06:33.824Z,99295.44
2022-12-03T07:09:00.385Z,99292.22
2022-12-03T07:11:32.553Z,99291.13
2022-12-03T07:14:05.141Z,99283.97
2022-12-03T07:16:32.591Z,99280.31
2022-12-03T07:18:59.139Z,99267.72
2022-12-03T07:21:25.692Z,99276.53
2022-12-03T07:23:52.264Z,99266.47
2022-12-03T07:26:19.337Z,99265.72
2022-12-03T07:28:48.241Z,99275.59
2022-12-03T07:31:15.451Z,99274.81
2022-12-03T07:33:42.307Z,99279.16
2022-12-03T07:36:09.588Z,99290.06
2022-12-03T07:38:36.318Z,99284.66
2022-12-03T07:41:02.869Z,99278.59
2022-12-03T07:43:29.465Z,99282.06
2022-12-03T07:45:56.041Z,99281.78
2022-12-03T07:48:22.544Z,99283.53
2022-12-03T07:50:49.176Z,99291.06
2022-12-03T07:53:15.818Z,99293.44
2022-12-03T07:55:42.259Z,99289.72
2022-12-03T07:58:09.403Z,99291.25
2022-12-03T08:00:36.161Z,99283.28
2022-12-03T08:03:02.719Z,99273.75
2022-12-03T08:05:29.910Z,99280.53
2022-12-03T08:07:56.987Z,99276.63
2022-12-03T08:10:25.627Z,99286.75
2022-12-03T08:12:53.705Z,99284.59
2022-12-03T08:15:26.192Z,99277.47
2022-12-03T08:17:58.783Z,99279.44
2022-12-03T08:20:33.706Z,99277.66
2022-12-03T08:23:06.792Z,99265.72
2022-12-03T08:25:33.763Z,99246.81
2022-12-03T08:28:07.998Z,99243.34
2022-12-03T08:30:34.492Z,99248.44
2022-12-03T08:33:01.047Z,99241.53
2022-12-03T08:35:31.231Z,99248.00
2022-12-03T08:38:01.174Z,99245.78
2022-12-03T08:40:36.991Z,99242.09
2022-12-03T08:43:13.813Z,99251.75
2022-12-03T08:45:41.857Z,99267.16
2022-12-03T08:48:32.934Z,99280.97
2022-12-03T08:51:11.626Z,99285.59
2022-12-03T08:53:53.326Z,99276.41
2022-12-03T08:56:26.149Z,99277.69
2022-12-03T08:58:55.658Z,99277.84
2022-12-03T09:01:29.061Z,99274.25
2022-12-03T09:03:57.974Z,99262.50
2022-12-03T09:06:24.614Z,99257.09
2022-12-03T09:08:51.263Z,99255.63
2022-12-03T09:11:17.844Z,99268.34
2022-12-03T09:13:44.363Z,99277.78
2022-12-03T09:16:10.999Z,99268.94
2022-12-03T09:18:37.670Z,99271.53
2022-12-03T09:21:04.355Z,99283.28
2022-12-03T09:23:30.915Z,99290.78
2022-12-03T09:25:57.561Z,99291.31
2022-12-03T09:28:24.038Z,99300.78
2022-12-03T09:30:50.716Z,99293.56
2022-12-03T09:33:17.367Z,99297.63
2022-12-03T09:35:43.875Z,99310.06
2022-12-03T09:38:11.014Z,99297.38
2022-12-03T09:40:39.511Z,99299.88
2022-12-03T09:43:06.013Z,99308.69
2022-12-03T09:45:32.785Z,99302.09
2022-12-03T09:48:01.764Z,99307.00
2022-12-03T09:50:28.402Z,99299.94
2022-12-03T09:52:58.605Z,99312.47
2022-12-03T09:55:27.330Z,99315.91
2022-12-03T09:57:54.793Z,99333.94
2022-12-03T10:00:26.896Z,99338.97
2022-12-03T10:02:56.567Z,99328.78
2022-12-03T10:05:23.889Z,99326.25
2022-12-03T10:07:52.395Z,99330.28
2022-12-03T10:10:23.432Z,99321.59
2022-12-03T10:12:53.027Z,99312.50
2022-12-03T10:15:22.984Z,99308.06
2022-12-03T10:17:51.809Z,99303.88
2022-12-03T10:20:20.455Z,99307.84
2022-12-03T10:22:48.838Z,99308.28
2022-12-03T10:25:18.452Z,99311.41
2022-12-03T10:27:56.571Z,99304.97
2022-12-03T10:30:26.468Z,99302.75
2022-12-03T10:32:53.065Z,99300.53
2022-12-03T10:35:22.972Z,99298.22
2022-12-03T10:37:59.952Z,99299.53
2022-12-03T10:40:33.487Z,99302.38
2022-12-03T10:43:18.173Z,99291.19
2022-12-03T10:45:48.483Z,99286.06
2022-12-03T10:48:26.270Z,99280.13
2022-12-03T10:51:22.828Z,99274.06
2022-12-03T10:53:50.685Z,99270.06
2022-12-03T10:56:27.682Z,99268.59
2022-12-03T10:58:55.164Z,99259.78
2022-12-03T11:01:24.982Z,99249.56
2022-12-03T11:03:52.702Z,99243.66
2022-12-03T11:06:21.785Z,99242.00
2022-12-03T11:08:58.372Z,99241.66
2022-12-03T11:11:30.293Z,99240.03
2022-12-03T11:13:59.353Z,99226.16
2022-12-03T11:16:41.034Z,99223.44
2022-12-03T11:19:17.981Z,99221.25
2022-12-03T11:22:06.334Z,99222.53
2022-12-03T11:24:34.238Z,99216.44
2022-12-03T11:27:00.707Z,99213.91
2022-12-03T11:29:48.278Z,99202.97
2022-12-03T11:33:00.422Z,99198.16
2022-12-03T11:35:35.989Z,99203.91
2022-12-03T11:38:52.142Z,99194.22
2022-12-03T11:41:19.832Z,99199.28
2022-12-03T11:43:52.316Z,99200.38
2022-12-03T11:46:29.237Z,99200.53
2022-12-03T11:48:58.639Z,99211.63
2022-12-03T11:51:27.316Z,99211.13
2022-12-03T11:53:57.604Z,99207.84
2022-12-03T11:56:30.248Z,99210.84
2022-12-03T11:59:02.057Z,99194.38
2022-12-03T12:01:42.518Z,99186.34
2022-12-03T12:04:28.599Z,99192.78
2022-12-03T12:06:55.182Z,99193.63
2022-12-03T12:10:00.822Z,99191.22
2022-12-03T12:12:31.276Z,99182.19
2022-12-03T12:15:20.822Z,99173.88
2022-12-03T12:17:47.454Z,99179.81
2022-12-03T12:20:26.806Z,99173.94
2022-12-03T12:22:55.073Z,99183.00
2022-12-03T12:25:53.810Z,99177.50
2022-12-03T12:28:21.079Z,99178.38
2022-12-03T12:30:47.554Z,99174.16
2022-12-03T12:33:21.054Z,99171.09
2022-12-03T12:35:47.667Z,99163.16
2022-12-03T12:38:17.195Z,99160.78
2022-12-03T12:40:46.933Z,99152.88
2022-12-03T12:43:24.368Z,99161.88
2022-12-03T12:45:54.761Z,99158.78
2022-12-03T12:48:25.744Z,99150.66
2022-12-03T12:51:01.796Z,99140.75
2022-12-03T12:53:30.839Z,99141.09
2022-12-03T12:56:01.379Z,99137.63
2022-12-03T12:58:33.132Z,99129.72
2022-12-03T13:01:04.010Z,99136.84
2022-12-03T13:03:34.613Z,99130.03
2022-12-03T13:06:02.232Z,99132.72
2022-12-03T13:08:32.285Z,99130.91
2022-12-03T13:11:00.731Z,99133.09
2022-12-03T13:13:41.632Z,99137.53
2022-12-03T13:16:42.416Z,99140.34
2022-12-03T13:19:27.210Z,99126.72
2022-12-03T13:22:20.937Z,99141.81
2022-12-03T13:24:50.903Z,99134.84
2022-12-03T13:27:17.442Z,99130.25
2022-12-03T13:29:51.239Z,99132.28
2022-12-03T13:32:22.038Z,99134.84
2022-12-03T13:34:50.556Z,99133.03
2022-12-03T13:37:24.425Z,99130.06
2022-12-03T13:39:54.200Z,99138.34
2022-12-03T13:42:38.911Z,99133.94
2022-12-03T13:45:14.562Z,99129.34
2022-12-03T13:47:41.166Z,99121.06
2022-12-03T13:50:21.661Z,99115.38
2022-12-03T13:52:48.702Z,99126.75
2022-12-03T13:55:26.447Z,99129.31
2022-12-03T13:57:53.601Z,99123.44
2022-12-03T14:00:20.183Z,99116.84
2022-12-03T14:02:46.854Z,99115.56
2022-12-03T14:05:13.564Z,99119.19
2022-12-03T14:07:40.131Z,99105.78
2022-12-03T14:10:08.320Z,99117.91
2022-12-03T14:12:50.226Z,99113.50
2022-12-03T14:15:16.857Z,99106.88
2022-12-03T14:17:43.348Z,99116.06
2022-12-03T14:20:10.630Z,99114.25
2022-12-03T14:22:38.142Z,99112.34
2022-12-03T14:25:06.378Z,99108.31
2022-12-03T14:27:33.095Z,99112.53
2022-12-03T14:29:59.759Z,99116.16
2022-12-03T14:32:26.347Z,99120.22
2022-12-03T14:34:53.034Z,99120.44
2022-12-03T14:37:19.648Z,99119.19
2022-12-03T14:39:46.202Z,99127.47
2022-12-03T14:42:15.687Z,99131.63
2022-12-03T14:44:43.265Z,99130.06
2022-12-03T14:47:10.097Z,99125.28
2022-12-03T14:49:36.743Z,99124.88
2022-12-03T14:52:03.722Z,99133.38
2022-12-03T14:54:30.549Z,99121.94
2022-12-03T14:56:57.257Z,99128.56
2022-12-03T14:59:42.150Z,99121.22
2022-12-03T15:02:10.110Z,99123.41
2022-12-03T15:04:37.194Z,99129.81
2022-12-03T15:07:04.057Z,99134.19
2022-12-03T15:09:30.975Z,99133.59
2022-12-03T15:11:57.683Z,99128.66
2022-12-03T15:14:24.150Z,99133.47
2022-12-03T15:16:50.859Z,99132.47
2022-12-03T15:19:17.760Z,99121.31
2022-12-03T15:21:44.263Z,99131.72
2022-12-03T15:24:11.392Z,99110.44
2022-12-03T15:26:38.065Z,99111.50
2022-12-03T15:29:04.603Z,99103.50
2022-12-03T15:31:31.231Z,99110.75
2022-12-03T15:33:57.839Z,99107.66
2022-12-03T15:36:24.370Z,99094.97
2022-12-03T15:38:50.960Z,99095.16
2022-12-03T15:41:29.643Z,99082.72
2022-12-03T15:43:58.618Z,99085.34
2022-12-03T15:46:27.711Z,99078.47
2022-12-03T15:48:55.661Z,99074.22
2022-12-03T15:51:22.370Z,99072.88
2022-12-03T15:53:48.980Z,99079.88
2022-12-03T15:56:16.033Z,99082.03
2022-12-03T15:58:42.749Z,99074.69
2022-12-03T16:01:09.733Z,99079.69
2022-12-03T16:03:36.751Z,99072.91
2022-12-03T16:06:03.676Z,99072.78
2022-12-03T16:08:30.357Z,99069.09
2022-12-03T16:10:56.846Z,99060.72
2022-12-03T16:13:23.439Z,99066.97
2022-12-03T16:15:50.056Z,99069.53
2022-12-03T16:18:16.634Z,99073.94
2022-12-03T16:20:43.363Z,99074.13
2022-12-03T16:23:09.985Z,99071.63
2022-12-03T16:25:36.475Z,99079.34
2022-12-03T16:28:03.195Z,99072.69
2022-12-03T16:30:29.868Z,99070.34
2022-12-03T16:32:56.396Z,99074.00
2022-12-03T16:35:22.976Z,99066.47
2022-12-03T16:37:49.614Z,99063.69
2022-12-03T16:40:16.329Z,99064.81
2022-12-03T16:42:42.934Z,99060.94
2022-12-03T16:45:09.822Z,99066.09
2022-12-03T16:47:36.714Z,99060.94
2022-12-03T16:50:10.627Z,99071.00
2022-12-03T17:13:59.293Z,99074.38
2022-12-03T17:16:25.860Z,99071.63
2022-12-03T17:18:52.389Z,99070.88
2022-12-03T17:21:19.091Z,99066.09
2022-12-03T17:23:48.775Z,99065.38
2022-12-03T17:26:15.297Z,99064.09
2022-12-03T17:28:42.082Z,99066.66
2022-12-03T17:31:08.664Z,99078.41
2022-12-03T17:33:35.256Z,99073.09
2022-12-03T17:36:02.157Z,99069.59
2022-12-03T17:38:31.554Z,99073.81
2022-12-03T17:41:00.560Z,99063.69
2022-12-03T17:43:27.206Z,99076.72
2022-12-03T17:45:53.758Z,99076.88
2022-12-03T17:48:20.319Z,99079.69
2022-12-03T17:50:48.712Z,99078.41
2022-12-03T17:53:15.200Z,99071.22
2022-12-03T17:55:45.015Z,99074.38
2022-12-03T17:58:12.164Z,99078.91
2022-12-03T18:00:39.065Z,99079.28
2022-12-03T18:03:05.545Z,99077.63
2022-12-03T18:05:32.219Z,99087.91
2022-12-03T18:07:58.859Z,99078.91
2022-12-03T18:10:25.520Z,99079.25
2022-12-03T18:12:54.802Z,99082.75
2022-12-03T18:15:23.541Z,99075.25
2022-12-03T18:17:50.034Z,99081.50
2022-12-03T18:20:16.635Z,99078.34
2022-12-03T18:22:43.237Z,99081.50
2022-12-03T18:25:10.255Z,99084.09
2022-12-03T18:27:37.032Z,99075.97
2022-12-03T18:30:04.057Z,99077.84
2022-12-03T18:32:30.601Z,99072.72
2022-12-03T18:34:57.788Z,99072.19
2022-12-03T18:37:27.916Z,99085.38
2022-12-03T18:39:56.411Z,99085.88
2022-12-03T18:42:23.882Z,99086.88
2022-12-03T18:44:52.455Z,99106.72
2022-12-03T18:47:26.763Z,99111.50
2022-12-03T18:49:54.254Z,99110.91
2022-12-03T18:52:22.387Z,99113.09
2022-12-03T18:54:49.395Z,99114.63
2022-12-03T18:57:16.372Z,99112.94
2022-12-03T18:59:42.922Z,99112.03
2022-12-03T19:03:01.995Z,99118.13
2022-12-03T19:05:10.700Z,99115.09
2022-12-03T19:07:37.584Z,99117.91
2022-12-03T19:10:04.700Z,99132.41
2022-12-03T19:12:31.735Z,99123.75
2022-12-03T19:14:58.681Z,99110.19
2022-12-03T19:17:27.032Z,99117.03
2022-12-03T19:19:53.959Z,99118.59
2022-12-03T19:22:21.024Z,99110.53
2022-12-03T19:24:47.524Z,99112.94
2022-12-03T19:27:14.244Z,99108.66
2022-12-03T19:29:41.663Z,99116.94
2022-12-03T19:32:09.044Z,99112.34
2022-12-03T19:34:35.881Z,99102.25
2022-12-03T19:37:02.587Z,99092.72
2022-12-03T19:39:29.124Z,99077.66
2022-12-03T19:41:55.618Z,99075.28
2022-12-03T19:44:22.240Z,99066.78
2022-12-03T19:46:50.242Z,99062.75
2022-12-03T19:49:18.660Z,99061.47
2022-12-03T19:51:45.370Z,99072.28
2022-12-03T19:54:12.220Z,99066.25
2022-12-03T19:56:39.019Z,99071.75
2022-12-03T19:59:06.012Z,99063.50
2022-12-03T20:01:36.175Z,99077.66
2022-12-03T20:04:03.902Z,99067.56
2022-12-03T20:06:33.073Z,99052.50
2022-12-03T20:09:02.168Z,99051.97
2022-12-03T20:11:31.957Z,99058.56
2022-12-03T20:14:04.534Z,99065.72
2022-12-03T20:16:31.421Z,99076.78
2022-12-03T20:19:00.262Z,99077.63
2022-12-03T20:21:28.855Z,99078.91
2022-12-03T20:23:55.374Z,99081.66
2022-12-03T20:26:22.482Z,99079.66
2022-12-03T20:28:49.817Z,99086.63
2022-12-03T20:31:19.112Z,99083.38
2022-12-03T20:33:48.575Z,99086.84
2022-12-03T20:36:17.953Z,99089.63
2022-12-03T20:38:44.660Z,99083.72
2022-12-03T20:41:17.273Z,99093.31
2022-12-03T20:43:44.327Z,99092.94
2022-12-03T20:46:12.205Z,99093.13
2022-12-03T20:48:39.760Z,99095.88
2022-12-03T20:51:09.033Z,99090.00
2022-12-03T20:53:36.529Z,99093.84
2022-12-03T20:56:04.150Z,99085.03
2022-12-03T20:58:31.459Z,99102.47
2022-12-03T21:01:18.108Z,99100.66
2022-12-03T21:03:46.164Z,99098.81
2022-12-03T21:06:13.735Z,99103.06
2022-12-03T21:08:42.231Z,99107.84
2022-12-03T21:11:15.053Z,99105.47
2022-12-03T21:13:43.703Z,99103.97
2022-12-03T21:16:12.875Z,99097.53
2022-12-03T21:18:39.702Z,99088.88
2022-12-03T21:21:06.533Z,99083.38
2022-12-03T21:23:34.329Z,99086.47
2022-12-03T21:26:15.262Z,99093.69
2022-12-03T21:28:46.093Z,99087.06
2022-12-03T21:31:15.979Z,99076.38
2022-12-03T21:33:43.217Z,99078.25
2022-12-03T21:36:11.232Z,99076.19
2022-12-03T21:38:38.189Z,99081.94
2022-12-03T21:41:05.586Z,99086.31
2022-12-03T21:43:32.620Z,99085.59
2022-12-03T21:45:59.683Z,99072.19
2022-12-03T21:48:26.582Z,99074.94
2022-12-03T21:51:03.664Z,99066.84
2022-12-03T21:53:32.337Z,99065.34
2022-12-03T21:55:59.694Z,99059.13
2022-12-03T21:58:26.436Z,99062.78
2022-12-03T22:00:53.181Z,99053.63
2022-12-03T22:03:19.737Z,99059.50
2022-12-03T22:05:46.500Z,99065.72
2022-12-03T22:08:13.991Z,99063.88
2022-12-03T22:10:40.630Z,99072.16
2022-12-03T22:13:07.266Z,99074.00
2022-12-03T22:15:33.970Z,99081.94
2022-12-03T22:18:00.597Z,99090.16
2022-12-03T22:20:27.168Z,99091.25
2022-12-03T22:22:53.718Z,99076.41
2022-12-03T22:25:20.208Z,99073.81
2022-12-03T22:27:46.744Z,99083.91
2022-12-03T22:30:13.609Z,99082.09
2022-12-03T22:32:40.222Z,99087.03
2022-12-03T22:35:07.098Z,99074.38
2022-12-03T22:37:33.751Z,99071.63
2022-12-03T22:40:00.267Z,99063.34
2022-12-03T22:42:26.912Z,99063.72
2022-12-03T22:44:53.547Z,99071.25
2022-12-03T22:47:20.031Z,99070.16
2022-12-03T22:49:46.598Z,99077.31
2022-12-03T22:52:13.194Z,99075.25
2022-12-03T22:54:39.758Z,99068.31
2022-12-03T22:57:06.411Z,99070.50
2022-12-03T22:59:33.069Z,99077.47
2022-12-03T23:01:59.553Z,99074.56
2022-12-03T23:04:26.363Z,99069.22
2022-12-03T23:06:53.079Z,99078.91
2022-12-03T23:09:19.714Z,99074.34
2022-12-03T23:11:46.337Z,99073.25
2022-12-03T23:14:13.322Z,99077.47
2022-12-03T23:16:40.067Z,99077.47
2022-12-03T23:19:06.695Z,99082.09
2022-12-03T23:21:34.847Z,99087.03
2022-12-03T23:24:04.297Z,99078.78
2022-12-03T23:26:35.748Z,99084.88
2022-12-03T23:29:02.274Z,99067.56
2022-12-03T23:31:31.315Z,99066.47
2022-12-03T23:33:59.339Z,99058.53
2022-12-03T23:36:28.116Z,99061.34
2022-12-03T23:38:54.692Z,99060.22
2022-12-03T23:41:23.596Z,99069.22
2022-12-03T23:43:50.104Z,99072.72
2022-12-03T23:46:25.888Z,99076.03
2022-12-03T23:48:52.846Z,99085.59
2022-12-03T23:51:24.077Z,99091.66
2022-12-03T23:53:51.385Z,99091.63
2022-12-03T23:56:20.622Z,99093.84
2022-12-03T23:58:47.556Z,99095.16
